Time;durP1;ratioP1;P1;durP2;ratioP2;P2;SDS_P1;SDS_P2;PMS_P1;PMS_P2;Temp;Humidity;BMP_temperature;BMP_pressure;BME280_temperature;BME280_humidity;BME280_pressure;Samples;Min_cycle;Max_cycle;Signal;HPM_P1;HPM_P2
2021/07/25 00:01:32;;;;;;;;;;;24.70;68.80;;;;;;5117296;27;19923;-55
2021/07/25 00:03:59;;;;;;;;;;;24.60;68.60;;;;;;5116538;27;19923;-54
2021/07/25 00:06:31;;;;;;;;;;;24.70;68.80;;;;;;5117084;27;19976;-54
2021/07/25 00:08:58;;;;;;;;;;;24.70;68.60;;;;;;5116327;27;19976;-55
2021/07/25 00:11:25;;;;;;;;;;;24.70;68.70;;;;;;5135133;27;19924;-54
2021/07/25 00:13:54;;;;;;;;;;;24.70;68.60;;;;;;5117282;27;19946;-54
2021/07/25 00:16:21;;;;;;;;;;;24.70;68.60;;;;;;5134843;27;19924;-53
2021/07/25 00:18:49;;;;;;;;;;;24.70;68.60;;;;;;5133147;27;19924;-51
2021/07/25 00:21:16;;;;;;;;;;;24.70;68.60;;;;;;5135000;27;20383;-53
2021/07/25 00:23:46;;;;;;;;;;;24.70;68.50;;;;;;5135193;27;20290;-53
2021/07/25 00:26:15;;;;;;;;;;;24.70;68.40;;;;;;5132281;27;19929;-53
2021/07/25 00:28:43;;;;;;;;;;;24.70;68.30;;;;;;5133384;27;19923;-50
2021/07/25 00:31:10;;;;;;;;;;;24.80;68.40;;;;;;5133781;27;19927;-51
2021/07/25 00:33:37;;;;;;;;;;;24.80;68.40;;;;;;5133217;27;19967;-51
2021/07/25 00:36:06;;;;;;;;;;;24.70;68.30;;;;;;5116148;27;19976;-53
2021/07/25 00:38:33;;;;;;;;;;;24.70;68.60;;;;;;5134809;27;19988;-51
2021/07/25 00:41:07;;;;;;;;;;;24.70;68.30;;;;;;5134530;27;20348;-49
2021/07/25 00:43:34;;;;;;;;;;;24.70;68.40;;;;;;5134811;27;20294;-55
2021/07/25 00:46:01;;;;;;;;;;;24.70;68.50;;;;;;5132959;27;20406;-50
2021/07/25 00:48:28;;;;;;;;;;;24.70;68.50;;;;;;5131813;27;19998;-52
2021/07/25 00:50:56;;;;;;;;;;;24.70;68.30;;;;;;5128485;27;19924;-49
2021/07/25 00:53:23;;;;;;;;;;;24.70;68.40;;;;;;5116101;27;19928;-53
2021/07/25 00:55:51;;;;;;;;;;;24.70;68.30;;;;;;5116406;27;19924;-53
2021/07/25 00:58:18;;;;;;;;;;;24.70;68.20;;;;;;5119876;27;19972;-53
2021/07/25 01:00:45;;;;;;;;;;;24.70;68.20;;;;;;5133336;27;19923;-52
2021/07/25 01:03:12;;;;;;;;;;;24.70;68.10;;;;;;5134140;27;19972;-52
2021/07/25 01:05:44;;;;;;;;;;;24.70;68.00;;;;;;5132029;27;19924;-53
2021/07/25 01:08:22;;;;;;;;;;;24.70;67.90;;;;;;5115085;27;19936;-54
2021/07/25 01:10:51;;;;;;;;;;;24.70;67.90;;;;;;5114699;27;20000;-53
2021/07/25 01:13:23;;;;;;;;;;;24.70;67.70;;;;;;5114727;27;19923;-49
2021/07/25 01:15:50;;;;;;;;;;;24.70;67.80;;;;;;5133982;27;19923;-50
2021/07/25 01:18:17;;;;;;;;;;;24.70;67.70;;;;;;5133126;27;20295;-52
2021/07/25 01:20:45;;;;;;;;;;;24.70;67.60;;;;;;5133888;27;19924;-48
2021/07/25 01:23:11;;;;;;;;;;;24.70;67.60;;;;;;5133238;27;20010;-50
2021/07/25 01:25:40;;;;;;;;;;;24.70;67.70;;;;;;5133683;27;19923;-54
2021/07/25 01:28:07;;;;;;;;;;;24.70;67.60;;;;;;5131177;27;19927;-53
2021/07/25 01:30:36;;;;;;;;;;;24.70;67.60;;;;;;5133733;27;20363;-53
2021/07/25 01:33:07;;;;;;;;;;;24.70;67.70;;;;;;5133726;27;20371;-54
2021/07/25 01:35:34;;;;;;;;;;;24.60;67.70;;;;;;5118449;27;19977;-50
2021/07/25 01:38:01;;;;;;;;;;;24.60;67.70;;;;;;5128421;27;20306;-51
2021/07/25 01:40:28;;;;;;;;;;;24.60;67.60;;;;;;5121697;27;19924;-54
2021/07/25 01:42:55;;;;;;;;;;;24.60;67.60;;;;;;5117023;28;20307;-50
2021/07/25 01:45:23;;;;;;;;;;;24.60;67.60;;;;;;5126465;27;19924;-49
2021/07/25 01:47:50;;;;;;;;;;;24.60;67.60;;;;;;5123694;27;19931;-51
2021/07/25 01:50:17;;;;;;;;;;;24.70;67.60;;;;;;5123129;27;19931;-53
2021/07/25 01:52:44;;;;;;;;;;;24.60;67.60;;;;;;5130897;28;19973;-53
2021/07/25 01:55:12;;;;;;;;;;;24.60;67.60;;;;;;5130617;28;19924;-51
2021/07/25 01:57:39;;;;;;;;;;;24.60;67.60;;;;;;5133289;28;20394;-49
2021/07/25 02:00:06;;;;;;;;;;;24.60;67.70;;;;;;5132286;28;20336;-49
2021/07/25 02:02:34;;;;;;;;;;;24.60;67.70;;;;;;5133285;28;19930;-54
2021/07/25 02:05:01;;;;;;;;;;;24.60;67.70;;;;;;5131173;28;19931;-54
2021/07/25 02:07:28;;;;;;;;;;;24.60;67.60;;;;;;5132228;28;20317;-55
2021/07/25 02:09:55;;;;;;;;;;;24.60;67.70;;;;;;5132377;28;19931;-56
2021/07/25 02:12:22;;;;;;;;;;;24.60;67.70;;;;;;5133358;28;19931;-55
2021/07/25 02:14:50;;;;;;;;;;;24.60;67.80;;;;;;5131532;28;19924;-53
2021/07/25 02:17:17;;;;;;;;;;;24.60;67.70;;;;;;5132533;28;19934;-53
2021/07/25 02:19:44;;;;;;;;;;;24.60;67.70;;;;;;5133171;28;19928;-55
2021/07/25 02:22:11;;;;;;;;;;;24.60;67.60;;;;;;5133752;28;20006;-55
2021/07/25 02:24:40;;;;;;;;;;;24.60;67.60;;;;;;5131551;28;19924;-52
2021/07/25 02:27:07;;;;;;;;;;;24.60;67.60;;;;;;5116022;28;19928;-54
2021/07/25 02:29:34;;;;;;;;;;;24.60;67.40;;;;;;5116176;28;20003;-54
2021/07/25 02:32:01;;;;;;;;;;;24.60;67.40;;;;;;5131000;27;19980;-55
2021/07/25 02:34:28;;;;;;;;;;;24.60;67.40;;;;;;5136072;27;19939;-53
2021/07/25 02:36:55;;;;;;;;;;;24.60;67.50;;;;;;5136329;27;19937;-53
2021/07/25 02:39:22;;;;;;;;;;;24.60;67.40;;;;;;5135524;27;20341;-53
2021/07/25 02:41:49;;;;;;;;;;;24.60;67.50;;;;;;5136843;27;20371;-53
2021/07/25 02:44:16;;;;;;;;;;;24.60;67.40;;;;;;5136048;27;19923;-51
2021/07/25 02:46:43;;;;;;;;;;;24.60;67.50;;;;;;5135325;27;19927;-51
2021/07/25 02:49:11;;;;;;;;;;;24.60;67.50;;;;;;5135352;27;19923;-50
2021/07/25 02:51:38;;;;;;;;;;;24.60;67.70;;;;;;5135387;27;20398;-53
2021/07/25 02:54:05;;;;;;;;;;;24.60;67.70;;;;;;5135231;27;20344;-52
2021/07/25 02:56:32;;;;;;;;;;;24.60;67.70;;;;;;5136678;27;19930;-54
2021/07/25 02:58:59;;;;;;;;;;;24.60;67.80;;;;;;5135613;27;20287;-52
2021/07/25 03:01:26;;;;;;;;;;;24.60;67.80;;;;;;5134288;27;19992;-51
2021/07/25 03:03:53;;;;;;;;;;;24.60;67.70;;;;;;5135403;27;20324;-51
2021/07/25 03:06:20;;;;;;;;;;;24.60;67.70;;;;;;5134103;27;19982;-52
2021/07/25 03:08:47;;;;;;;;;;;24.50;67.60;;;;;;5118437;27;20580;-53
2021/07/25 03:11:14;;;;;;;;;;;24.60;67.70;;;;;;5136449;27;19923;-56
2021/07/25 03:13:41;;;;;;;;;;;24.60;67.70;;;;;;5134847;27;19923;-54
2021/07/25 03:16:09;;;;;;;;;;;24.60;67.60;;;;;;5135966;27;19998;-54
2021/07/25 03:18:36;;;;;;;;;;;24.60;67.70;;;;;;5136528;27;20492;-54
2021/07/25 03:21:04;;;;;;;;;;;24.60;67.60;;;;;;5133874;27;19923;-51
2021/07/25 03:23:32;;;;;;;;;;;24.60;67.60;;;;;;5134737;27;19974;-51
2021/07/25 03:25:59;;;;;;;;;;;24.60;67.60;;;;;;5135958;27;19998;-52
2021/07/25 03:28:26;;;;;;;;;;;24.60;67.50;;;;;;5121294;27;19972;-52
2021/07/25 03:30:54;;;;;;;;;;;24.60;67.50;;;;;;5128670;27;19923;-55
2021/07/25 03:33:21;;;;;;;;;;;24.60;67.50;;;;;;5134803;27;19923;-51
2021/07/25 03:35:48;;;;;;;;;;;24.60;67.60;;;;;;5127925;27;19927;-51
2021/07/25 03:38:16;;;;;;;;;;;24.60;67.60;;;;;;5127388;27;20009;-53
2021/07/25 03:40:44;;;;;;;;;;;24.60;67.60;;;;;;5134325;27;20415;-52
2021/07/25 03:43:12;;;;;;;;;;;24.60;67.60;;;;;;5135581;27;19974;-50
2021/07/25 03:45:43;;;;;;;;;;;24.60;67.60;;;;;;5134050;27;19931;-51
2021/07/25 03:48:10;;;;;;;;;;;24.60;67.40;;;;;;5134927;27;19923;-51
2021/07/25 03:50:39;;;;;;;;;;;24.60;67.50;;;;;;5134416;27;19954;-52
2021/07/25 03:53:07;;;;;;;;;;;24.60;67.50;;;;;;5132900;27;20383;-53
2021/07/25 03:55:34;;;;;;;;;;;24.60;67.50;;;;;;5131561;27;19923;-51
2021/07/25 03:58:02;;;;;;;;;;;24.60;67.50;;;;;;5120218;27;20309;-53
2021/07/25 04:00:30;;;;;;;;;;;24.60;67.60;;;;;;5134529;27;20256;-54
2021/07/25 04:02:57;;;;;;;;;;;24.60;67.50;;;;;;5134328;27;20003;-54
2021/07/25 04:05:25;;;;;;;;;;;24.60;67.50;;;;;;5135457;27;19959;-53
2021/07/25 04:07:52;;;;;;;;;;;24.60;67.30;;;;;;5135304;27;19938;-53
2021/07/25 04:10:19;;;;;;;;;;;24.60;67.30;;;;;;5135509;27;19924;-54
2021/07/25 04:12:46;;;;;;;;;;;24.60;67.40;;;;;;5134681;27;19955;-53
2021/07/25 04:15:13;;;;;;;;;;;24.60;67.30;;;;;;5134988;27;19923;-52
2021/07/25 04:17:40;;;;;;;;;;;24.60;67.30;;;;;;5115901;27;19923;-51
2021/07/25 04:20:07;;;;;;;;;;;24.60;67.20;;;;;;5117233;27;19947;-53
2021/07/25 04:22:35;;;;;;;;;;;24.60;67.30;;;;;;5135112;27;19984;-51
2021/07/25 04:25:03;;;;;;;;;;;24.60;67.10;;;;;;5120547;27;19974;-55
2021/07/25 04:27:30;;;;;;;;;;;24.60;67.10;;;;;;5130256;27;19923;-56
2021/07/25 04:29:57;;;;;;;;;;;24.60;66.90;;;;;;5133525;27;19968;-54
2021/07/25 04:32:25;;;;;;;;;;;24.70;66.90;;;;;;5133669;27;20054;-52
2021/07/25 04:34:52;;;;;;;;;;;24.70;66.90;;;;;;5133605;27;19927;-57
2021/07/25 04:37:25;;;;;;;;;;;24.70;66.90;;;;;;5126602;27;20332;-53
2021/07/25 04:39:52;;;;;;;;;;;24.70;66.80;;;;;;5134710;27;19924;-53
2021/07/25 04:42:23;;;;;;;;;;;24.80;66.80;;;;;;5134541;27;19923;-54
2021/07/25 04:44:58;;;;;;;;;;;24.80;66.80;;;;;;5133171;27;19973;-53
2021/07/25 04:47:48;;;;;;;;;;;24.90;66.60;;;;;;5133137;27;20006;-55
2021/07/25 04:50:16;;;;;;;;;;;24.90;66.50;;;;;;5121224;27;19927;-51
2021/07/25 04:52:51;;;;;;;;;;;24.90;66.20;;;;;;5132977;27;19927;-54
2021/07/25 04:55:20;;;;;;;;;;;24.90;66.10;;;;;;5130824;27;19927;-55
2021/07/25 04:57:49;;;;;;;;;;;25.00;66.10;;;;;;5134185;27;19969;-53
2021/07/25 05:00:16;;;;;;;;;;;25.00;65.90;;;;;;5134170;27;19924;-54
2021/07/25 05:02:43;;;;;;;;;;;25.00;65.80;;;;;;5133351;27;19963;-48
2021/07/25 05:05:11;;;;;;;;;;;25.10;65.90;;;;;;5134461;27;19923;-55
2021/07/25 05:07:40;;;;;;;;;;;25.10;65.70;;;;;;5134046;27;19927;-53
2021/07/25 05:10:08;;;;;;;;;;;25.10;65.70;;;;;;5127843;27;19972;-54
2021/07/25 05:12:44;;;;;;;;;;;25.10;65.80;;;;;;5119643;27;19923;-55
2021/07/25 05:15:15;;;;;;;;;;;25.20;65.60;;;;;;5134211;27;19945;-55
2021/07/25 05:17:54;;;;;;;;;;;25.20;65.50;;;;;;5130247;27;19923;-54
2021/07/25 05:20:29;;;;;;;;;;;25.20;65.50;;;;;;5121586;27;19924;-55
2021/07/25 05:23:09;;;;;;;;;;;25.20;65.40;;;;;;5132768;27;19931;-55
2021/07/25 05:25:40;;;;;;;;;;;25.20;65.40;;;;;;5133957;27;20336;-55
2021/07/25 05:28:07;;;;;;;;;;;25.30;66.00;;;;;;5127883;27;19971;-53
2021/07/25 05:30:36;;;;;;;;;;;25.30;65.30;;;;;;5120805;27;19927;-52
2021/07/25 05:33:03;;;;;;;;;;;25.30;65.30;;;;;;5132436;27;19924;-55
2021/07/25 05:35:29;;;;;;;;;;;25.30;65.70;;;;;;5131529;27;19927;-53
2021/07/25 05:37:57;;;;;;;;;;;25.20;65.80;;;;;;5133942;27;19923;-53
2021/07/25 05:40:24;;;;;;;;;;;25.20;65.70;;;;;;5132375;27;20014;-51
2021/07/25 05:42:51;;;;;;;;;;;25.20;65.80;;;;;;5133257;27;19923;-54
2021/07/25 05:45:18;;;;;;;;;;;25.20;65.80;;;;;;5133234;27;19933;-55
2021/07/25 05:47:45;;;;;;;;;;;25.30;65.80;;;;;;5132479;27;19923;-55
2021/07/25 05:50:12;;;;;;;;;;;25.30;65.70;;;;;;5133426;27;19930;-56
2021/07/25 05:53:05;;;;;;;;;;;25.30;65.70;;;;;;5114508;28;20439;-55
2021/07/25 05:55:33;;;;;;;;;;;25.30;65.50;;;;;;5127706;28;20357;-52
2021/07/25 05:58:00;;;;;;;;;;;25.30;65.50;;;;;;5132560;28;20436;-52
2021/07/25 06:00:27;;;;;;;;;;;25.40;65.30;;;;;;5133427;28;20022;-54
2021/07/25 06:02:59;;;;;;;;;;;25.40;65.20;;;;;;5133659;28;20387;-55
2021/07/25 06:05:27;;;;;;;;;;;25.50;65.10;;;;;;5133385;27;19923;-55
2021/07/25 06:07:55;;;;;;;;;;;25.50;65.00;;;;;;5120119;27;19924;-55
2021/07/25 06:10:23;;;;;;;;;;;25.50;64.80;;;;;;5134484;27;19927;-52
2021/07/25 06:12:51;;;;;;;;;;;25.50;64.70;;;;;;5136029;27;19923;-54
2021/07/25 06:15:18;;;;;;;;;;;25.50;64.80;;;;;;5118097;27;19927;-52
2021/07/25 06:17:45;;;;;;;;;;;25.60;64.90;;;;;;5137775;27;19992;-53
2021/07/25 06:20:13;;;;;;;;;;;25.60;64.60;;;;;;5134692;27;20371;-53
2021/07/25 06:22:41;;;;;;;;;;;25.60;64.60;;;;;;5136559;27;19924;-54
2021/07/25 06:25:09;;;;;;;;;;;25.60;64.80;;;;;;5137095;27;19966;-55
2021/07/25 06:27:36;;;;;;;;;;;25.60;64.70;;;;;;5137024;27;19930;-54
2021/07/25 06:30:04;;;;;;;;;;;25.60;65.10;;;;;;5136676;27;20293;-53
2021/07/25 06:32:31;;;;;;;;;;;25.60;65.10;;;;;;5128964;27;20019;-53
2021/07/25 06:34:58;;;;;;;;;;;25.60;65.20;;;;;;5124468;27;19927;-52
2021/07/25 06:37:25;;;;;;;;;;;25.60;65.20;;;;;;5123908;27;20290;-55
2021/07/25 06:39:53;;;;;;;;;;;25.60;65.10;;;;;;5137283;27;19930;-55
2021/07/25 06:42:20;;;;;;;;;;;25.60;65.00;;;;;;5133268;27;19969;-52
2021/07/25 06:44:47;;;;;;;;;;;25.60;65.00;;;;;;5134676;27;19923;-54
2021/07/25 06:47:14;;;;;;;;;;;25.60;64.70;;;;;;5137131;27;20303;-53
2021/07/25 06:49:41;;;;;;;;;;;25.70;65.30;;;;;;5135252;27;19923;-53
2021/07/25 06:52:08;;;;;;;;;;;25.70;65.60;;;;;;5136643;27;20455;-54
2021/07/25 06:54:35;;;;;;;;;;;25.60;65.50;;;;;;5136236;27;19923;-55
2021/07/25 06:57:02;;;;;;;;;;;25.60;65.80;;;;;;5137101;27;19979;-50
2021/07/25 06:59:29;;;;;;;;;;;25.70;65.60;;;;;;5136945;27;20275;-52
2021/07/25 07:01:56;;;;;;;;;;;25.70;65.50;;;;;;5133350;27;20371;-52
2021/07/25 07:04:24;;;;;;;;;;;25.70;65.30;;;;;;5136836;27;19976;-53
2021/07/25 07:06:51;;;;;;;;;;;25.70;65.40;;;;;;5134975;27;19930;-52
2021/07/25 07:09:18;;;;;;;;;;;25.80;65.90;;;;;;5133829;27;19928;-51
2021/07/25 07:11:45;;;;;;;;;;;25.70;65.30;;;;;;5134942;27;19930;-54
2021/07/25 07:14:12;;;;;;;;;;;25.80;65.30;;;;;;5133831;27;19931;-53
2021/07/25 07:16:39;;;;;;;;;;;25.80;65.20;;;;;;5115369;27;19980;-51
2021/07/25 07:19:06;;;;;;;;;;;25.80;65.30;;;;;;5135258;27;19923;-53
2021/07/25 07:21:33;;;;;;;;;;;25.80;65.40;;;;;;5135101;27;20058;-51
2021/07/25 07:24:01;;;;;;;;;;;25.80;65.20;;;;;;5136165;27;20401;-51
2021/07/25 07:26:28;;;;;;;;;;;25.80;65.10;;;;;;5136014;27;19923;-53
2021/07/25 07:28:55;;;;;;;;;;;25.80;65.10;;;;;;5133656;27;20441;-50
2021/07/25 07:31:22;;;;;;;;;;;25.80;65.20;;;;;;5116769;27;19974;-50
2021/07/25 07:33:49;;;;;;;;;;;25.80;65.30;;;;;;5136191;27;19934;-52
2021/07/25 07:36:16;;;;;;;;;;;25.80;65.50;;;;;;5113152;27;20357;-51
2021/07/25 07:38:43;;;;;;;;;;;25.90;65.70;;;;;;5135817;27;19974;-52
2021/07/25 07:41:10;;;;;;;;;;;25.90;65.80;;;;;;5134766;27;19985;-55
2021/07/25 07:43:38;;;;;;;;;;;25.90;65.50;;;;;;5135777;27;19923;-53
2021/07/25 07:46:05;;;;;;;;;;;25.90;65.70;;;;;;5136257;27;19958;-53
2021/07/25 07:48:32;;;;;;;;;;;25.90;65.30;;;;;;5116028;27;19928;-53
2021/07/25 07:50:59;;;;;;;;;;;25.90;65.30;;;;;;5134694;27;19924;-53
2021/07/25 07:53:26;;;;;;;;;;;26.00;65.20;;;;;;5133325;27;19924;-53
2021/07/25 07:55:53;;;;;;;;;;;26.00;66.00;;;;;;5099131;28;19966;-52
2021/07/25 07:58:20;;;;;;;;;;;26.10;65.30;;;;;;5133453;27;20010;-53
2021/07/25 08:00:48;;;;;;;;;;;26.10;65.00;;;;;;5117196;27;20002;-49
2021/07/25 08:03:16;;;;;;;;;;;26.20;64.90;;;;;;5133806;27;19923;-51
2021/07/25 08:05:43;;;;;;;;;;;26.20;65.50;;;;;;5135275;27;19934;-53
2021/07/25 08:08:10;;;;;;;;;;;26.30;65.40;;;;;;5135545;27;19923;-52
2021/07/25 08:10:37;;;;;;;;;;;26.30;65.60;;;;;;5129638;27;19924;-55
2021/07/25 08:13:08;;;;;;;;;;;26.30;65.50;;;;;;5128743;27;20576;-52
2021/07/25 08:15:40;;;;;;;;;;;26.40;65.00;;;;;;5133567;27;19924;-51
2021/07/25 08:18:10;;;;;;;;;;;26.30;64.70;;;;;;5133518;27;19931;-52
2021/07/25 08:20:37;;;;;;;;;;;26.40;65.40;;;;;;5134014;27;20394;-49
2021/07/25 08:23:04;;;;;;;;;;;26.40;64.60;;;;;;5134540;27;19923;-56
2021/07/25 08:25:31;;;;;;;;;;;26.40;65.10;;;;;;5134777;27;19970;-57
2021/07/25 08:27:58;;;;;;;;;;;26.40;64.60;;;;;;5134342;27;20382;-55
2021/07/25 08:30:30;;;;;;;;;;;26.40;64.50;;;;;;5133136;27;20293;-55
2021/07/25 08:32:59;;;;;;;;;;;26.40;64.40;;;;;;5132851;27;20325;-55
2021/07/25 08:35:26;;;;;;;;;;;26.40;64.20;;;;;;5130733;27;19923;-55
2021/07/25 08:37:55;;;;;;;;;;;26.50;64.20;;;;;;5119973;27;19924;-54
2021/07/25 08:40:30;;;;;;;;;;;26.50;63.90;;;;;;5133623;27;20034;-54
2021/07/25 08:43:06;;;;;;;;;;;26.60;63.90;;;;;;5133838;27;19928;-55
2021/07/25 08:45:41;;;;;;;;;;;26.60;64.20;;;;;;5130774;27;20442;-55
2021/07/25 08:48:18;;;;;;;;;;;26.60;63.80;;;;;;5120421;27;19924;-55
2021/07/25 08:51:04;;;;;;;;;;;26.60;63.80;;;;;;5109702;28;20352;-53
2021/07/25 08:53:41;;;;;;;;;;;26.60;63.80;;;;;;5123660;27;20325;-55
2021/07/25 08:56:14;;;;;;;;;;;26.60;63.80;;;;;;5124150;27;19923;-54
2021/07/25 08:58:50;;;;;;;;;;;26.60;63.80;;;;;;5106753;27;19976;-52
2021/07/25 09:01:25;;;;;;;;;;;26.60;64.20;;;;;;5132851;27;20389;-53
2021/07/25 09:03:58;;;;;;;;;;;26.70;63.90;;;;;;5113829;27;19965;-55
2021/07/25 09:06:52;;;;;;;;;;;26.60;64.00;;;;;;5131552;27;19930;-54
2021/07/25 09:09:26;;;;;;;;;;;26.70;64.10;;;;;;5114305;27;20345;-56
2021/07/25 09:12:05;;;;;;;;;;;26.70;64.10;;;;;;5115399;27;20366;-54
2021/07/25 09:14:46;;;;;;;;;;;26.70;64.30;;;;;;5132239;27;19923;-57
2021/07/25 09:17:28;;;;;;;;;;;26.70;64.30;;;;;;5121304;27;19951;-53
2021/07/25 09:20:11;;;;;;;;;;;26.70;64.70;;;;;;5108327;28;19977;-52
2021/07/25 09:22:52;;;;;;;;;;;26.70;64.30;;;;;;5114930;27;19953;-55
2021/07/25 09:25:21;;;;;;;;;;;26.70;64.30;;;;;;5120760;27;20018;-56
2021/07/25 09:28:11;;;;;;;;;;;26.70;64.40;;;;;;5130640;27;19924;-55
2021/07/25 09:30:46;;;;;;;;;;;26.70;64.40;;;;;;5129593;27;20011;-53
2021/07/25 09:33:46;;;;;;;;;;;26.70;64.50;;;;;;5126982;27;19957;-54
2021/07/25 09:36:40;;;;;;;;;;;26.70;64.50;;;;;;5123308;27;20378;-56
2021/07/25 09:39:36;;;;;;;;;;;26.70;64.40;;;;;;5117056;27;19924;-56
2021/07/25 09:42:08;;;;;;;;;;;26.70;64.50;;;;;;5120103;27;19923;-57
2021/07/25 09:44:53;;;;;;;;;;;26.70;64.60;;;;;;5106874;27;19923;-56
2021/07/25 09:47:43;;;;;;;;;;;26.80;64.70;;;;;;5121262;27;19923;-55
2021/07/25 09:50:29;;;;;;;;;;;26.80;65.00;;;;;;5129795;27;19997;-55
2021/07/25 09:53:18;;;;;;;;;;;26.80;64.90;;;;;;5126069;27;20023;-55
2021/07/25 09:56:00;;;;;;;;;;;26.80;64.60;;;;;;5115649;28;19924;-57
2021/07/25 09:58:48;;;;;;;;;;;26.80;65.00;;;;;;5122259;28;20344;-55
2021/07/25 10:01:39;;;;;;;;;;;26.80;64.80;;;;;;5130087;28;19945;-56
2021/07/25 10:04:12;;;;;;;;;;;26.80;64.80;;;;;;5121568;28;19923;-57
2021/07/25 10:06:43;;;;;;;;;;;26.80;64.80;;;;;;5117137;28;19924;-57
2021/07/25 10:09:26;;;;;;;;;;;26.80;64.80;;;;;;5113933;28;19931;-55
2021/07/25 10:12:09;;;;;;;;;;;26.80;64.80;;;;;;5124942;28;19942;-56
2021/07/25 10:14:40;;;;;;;;;;;26.80;65.30;;;;;;5102173;28;20448;-56
2021/07/25 10:17:07;;;;;;;;;;;26.70;64.80;;;;;;5133042;28;19924;-54
2021/07/25 10:19:34;;;;;;;;;;;26.80;65.00;;;;;;5114192;28;20041;-53
2021/07/25 10:22:06;;;;;;;;;;;26.80;65.20;;;;;;5131622;28;19976;-54
2021/07/25 10:24:34;;;;;;;;;;;26.80;65.10;;;;;;5133202;28;19931;-55
2021/07/25 10:27:05;;;;;;;;;;;26.80;65.10;;;;;;5133151;28;20359;-52
2021/07/25 10:29:37;;;;;;;;;;;26.80;65.00;;;;;;5133062;28;19931;-51
2021/07/25 10:32:06;;;;;;;;;;;26.80;64.90;;;;;;5099840;28;19972;-53
2021/07/25 10:34:35;;;;;;;;;;;26.80;65.00;;;;;;5130087;28;19930;-55
2021/07/25 10:37:03;;;;;;;;;;;26.80;65.10;;;;;;5132203;28;19924;-50
2021/07/25 10:39:31;;;;;;;;;;;26.80;65.00;;;;;;5121195;28;19977;-53
2021/07/25 10:42:00;;;;;;;;;;;26.80;65.10;;;;;;5125833;28;19969;-54
2021/07/25 10:44:31;;;;;;;;;;;26.80;65.10;;;;;;5131781;28;19923;-54
2021/07/25 10:47:21;;;;;;;;;;;26.80;65.10;;;;;;5121149;28;19935;-54
2021/07/25 10:49:59;;;;;;;;;;;26.80;64.90;;;;;;5107893;28;20402;-55
2021/07/25 10:52:27;;;;;;;;;;;26.80;64.60;;;;;;5134711;27;20339;-52
2021/07/25 10:54:54;;;;;;;;;;;26.90;64.50;;;;;;5112087;28;19969;-54
2021/07/25 10:57:21;;;;;;;;;;;26.80;64.30;;;;;;5113770;28;19932;-54
2021/07/25 10:59:50;;;;;;;;;;;26.90;64.40;;;;;;5114987;28;19976;-55
2021/07/25 11:02:24;;;;;;;;;;;26.80;64.30;;;;;;5113845;28;20018;-53
2021/07/25 11:04:51;;;;;;;;;;;26.90;64.40;;;;;;5116085;28;20059;-54
2021/07/25 11:07:21;;;;;;;;;;;26.90;64.40;;;;;;5116280;28;19996;-51
2021/07/25 11:09:59;;;;;;;;;;;26.90;64.30;;;;;;5115959;28;19928;-55
2021/07/25 11:12:47;;;;;;;;;;;26.90;64.30;;;;;;5113732;28;19923;-52
2021/07/25 11:15:35;;;;;;;;;;;26.90;64.30;;;;;;5115896;28;19930;-55
2021/07/25 11:18:12;;;;;;;;;;;26.90;63.90;;;;;;5115633;28;19928;-55
2021/07/25 11:20:52;;;;;;;;;;;26.90;63.70;;;;;;5114244;28;19932;-50
2021/07/25 11:23:19;;;;;;;;;;;26.90;63.50;;;;;;5115511;28;19934;-55
2021/07/25 11:25:47;;;;;;;;;;;26.90;63.50;;;;;;5114839;28;20326;-51
2021/07/25 11:28:33;;;;;;;;;;;26.80;63.40;;;;;;5104279;28;19930;-53
2021/07/25 11:31:00;;;;;;;;;;;26.90;63.40;;;;;;5110817;28;19923;-54
2021/07/25 11:33:45;;;;;;;;;;;26.90;63.60;;;;;;5115351;28;19924;-53
2021/07/25 11:36:16;;;;;;;;;;;26.90;63.40;;;;;;5103523;28;19924;-54
2021/07/25 11:38:48;;;;;;;;;;;26.90;63.30;;;;;;5110466;28;19928;-56
2021/07/25 11:41:20;;;;;;;;;;;26.90;63.20;;;;;;5101079;28;19995;-54
2021/07/25 11:43:54;;;;;;;;;;;26.90;63.20;;;;;;5098686;28;19925;-54
2021/07/25 11:46:21;;;;;;;;;;;26.90;63.10;;;;;;5108850;28;20402;-55
2021/07/25 11:49:00;;;;;;;;;;;26.90;63.20;;;;;;5111379;28;19973;-55
2021/07/25 11:51:27;;;;;;;;;;;26.90;63.20;;;;;;5112848;28;19924;-55
2021/07/25 11:53:55;;;;;;;;;;;26.90;63.20;;;;;;5115751;27;19931;-55
2021/07/25 11:56:22;;;;;;;;;;;26.90;63.10;;;;;;5133125;27;19923;-53
2021/07/25 11:59:06;;;;;;;;;;;26.90;63.10;;;;;;5135771;27;19996;-52
2021/07/25 12:01:34;;;;;;;;;;;26.90;63.10;;;;;;5135741;27;19923;-55
2021/07/25 12:04:21;;;;;;;;;;;26.90;63.10;;;;;;5135413;27;19924;-54
2021/07/25 12:07:03;;;;;;;;;;;26.90;63.10;;;;;;5135390;27;20010;-54
2021/07/25 12:09:31;;;;;;;;;;;26.90;63.10;;;;;;5135151;27;19930;-50
2021/07/25 12:12:01;;;;;;;;;;;26.90;63.10;;;;;;5134096;27;19929;-53
2021/07/25 12:14:29;;;;;;;;;;;26.90;63.10;;;;;;5135432;27;19923;-52
2021/07/25 12:16:57;;;;;;;;;;;26.90;63.20;;;;;;5114877;27;19923;-53
2021/07/25 12:19:24;;;;;;;;;;;26.90;63.20;;;;;;5133900;27;19923;-55
2021/07/25 12:22:10;;;;;;;;;;;26.90;63.10;;;;;;5135443;27;19976;-55
2021/07/25 12:24:38;;;;;;;;;;;26.90;63.20;;;;;;5133016;27;19923;-50
2021/07/25 12:27:06;;;;;;;;;;;26.90;63.20;;;;;;5132679;27;19929;-51
2021/07/25 12:29:43;;;;;;;;;;;26.90;63.20;;;;;;5133769;27;20010;-54
2021/07/25 12:32:24;;;;;;;;;;;26.90;63.20;;;;;;5132600;27;20239;-52
2021/07/25 12:34:53;;;;;;;;;;;26.90;63.10;;;;;;5133304;27;19927;-55
2021/07/25 12:37:30;;;;;;;;;;;27.00;63.10;;;;;;5128848;27;19923;-55
2021/07/25 12:40:04;;;;;;;;;;;27.00;63.00;;;;;;5133811;27;19930;-52
2021/07/25 12:42:35;;;;;;;;;;;27.00;63.70;;;;;;5133806;27;19923;-49
2021/07/25 12:45:21;;;;;;;;;;;27.10;62.90;;;;;;5134987;27;19928;-54
2021/07/25 12:47:48;;;;;;;;;;;27.00;62.80;;;;;;5134669;27;20002;-50
2021/07/25 12:50:16;;;;;;;;;;;27.10;62.80;;;;;;5133176;27;19923;-53
2021/07/25 12:52:43;;;;;;;;;;;27.10;62.70;;;;;;5133046;27;19954;-54
2021/07/25 12:55:27;;;;;;;;;;;27.10;62.70;;;;;;5123027;27;19947;-53
2021/07/25 12:57:54;;;;;;;;;;;27.10;62.60;;;;;;5115960;27;20364;-54
2021/07/25 13:00:23;;;;;;;;;;;27.10;62.40;;;;;;5126049;27;19947;-53
2021/07/25 13:05:40;;;;;;;;;;;27.10;62.20;;;;;;5099820;28;19927;-54
2021/07/25 13:08:07;;;;;;;;;;;27.10;62.10;;;;;;5126868;27;19992;-54
2021/07/25 13:10:34;;;;;;;;;;;27.10;62.10;;;;;;5132316;27;19923;-53
2021/07/25 13:13:01;;;;;;;;;;;27.10;62.10;;;;;;5132922;27;20014;-51
2021/07/25 13:15:28;;;;;;;;;;;27.10;62.10;;;;;;5131512;27;19998;-53
2021/07/25 13:17:55;;;;;;;;;;;27.10;62.10;;;;;;5131831;27;20321;-51
2021/07/25 13:20:22;;;;;;;;;;;27.10;62.20;;;;;;5131399;27;19929;-53
2021/07/25 13:22:49;;;;;;;;;;;27.20;62.30;;;;;;5115100;27;19962;-51
2021/07/25 13:25:16;;;;;;;;;;;27.20;62.40;;;;;;5132604;27;19932;-53
2021/07/25 13:27:43;;;;;;;;;;;27.10;62.30;;;;;;5134003;27;20291;-52
2021/07/25 13:30:11;;;;;;;;;;;27.10;62.40;;;;;;5133843;27;19928;-52
2021/07/25 13:32:38;;;;;;;;;;;27.10;62.50;;;;;;5132636;27;19924;-55
2021/07/25 13:35:05;;;;;;;;;;;27.10;62.50;;;;;;5097698;27;20272;-55
2021/07/25 13:37:32;;;;;;;;;;;27.10;62.60;;;;;;5133102;27;19923;-51
2021/07/25 13:39:59;;;;;;;;;;;27.10;62.60;;;;;;5133764;27;19945;-51
2021/07/25 13:42:26;;;;;;;;;;;27.10;62.70;;;;;;5134130;27;19930;-49
2021/07/25 13:44:58;;;;;;;;;;;27.10;63.00;;;;;;5133726;27;19924;-53
2021/07/25 13:47:25;;;;;;;;;;;27.10;63.00;;;;;;5117371;27;20396;-49
2021/07/25 13:49:52;;;;;;;;;;;27.10;63.20;;;;;;5115591;27;20347;-53
2021/07/25 13:52:19;;;;;;;;;;;27.10;63.30;;;;;;5116634;28;19978;-53
2021/07/25 13:54:47;;;;;;;;;;;27.10;63.40;;;;;;5129237;27;20298;-55
2021/07/25 13:57:14;;;;;;;;;;;27.10;63.60;;;;;;5112699;28;20387;-54
2021/07/25 13:59:41;;;;;;;;;;;27.10;63.70;;;;;;5132105;28;19923;-54
2021/07/25 14:02:08;;;;;;;;;;;27.10;63.60;;;;;;5130779;28;19923;-53
2021/07/25 14:04:35;;;;;;;;;;;27.10;63.80;;;;;;5123542;28;19924;-52
2021/07/25 14:07:02;;;;;;;;;;;27.20;63.90;;;;;;5124552;28;19924;-53
2021/07/25 14:09:29;;;;;;;;;;;27.20;63.90;;;;;;5133490;28;20043;-53
2021/07/25 14:11:56;;;;;;;;;;;27.20;64.20;;;;;;5132073;28;19984;-54
2021/07/25 14:14:23;;;;;;;;;;;27.20;64.10;;;;;;5132203;28;19937;-52
2021/07/25 14:17:00;;;;;;;;;;;27.30;64.20;;;;;;5130861;28;19930;-55
2021/07/25 14:19:30;;;;;;;;;;;27.30;64.20;;;;;;5132555;28;19950;-52
2021/07/25 14:22:02;;;;;;;;;;;27.30;64.30;;;;;;5130959;28;19923;-50
2021/07/25 14:24:29;;;;;;;;;;;27.30;64.00;;;;;;5133573;28;19923;-54
2021/07/25 14:26:56;;;;;;;;;;;27.30;63.90;;;;;;5113501;27;19924;-54
2021/07/25 14:29:24;;;;;;;;;;;27.40;63.80;;;;;;5134741;27;20016;-55
2021/07/25 14:31:51;;;;;;;;;;;27.40;63.70;;;;;;5137128;27;20018;-54
2021/07/25 14:34:18;;;;;;;;;;;27.40;63.50;;;;;;5137190;27;19985;-55
2021/07/25 14:36:45;;;;;;;;;;;27.50;64.60;;;;;;5123153;27;19931;-54